createdAt,value
2019-05-15T00:00:01.903Z,29.54
2019-05-15T00:01:01.878Z,29.24
2019-05-15T00:02:01.866Z,29.64
2019-05-15T00:03:01.858Z,29.84
2019-05-15T00:04:01.846Z,29.64
2019-05-15T00:05:01.857Z,29.74
2019-05-15T00:06:01.824Z,29.33
2019-05-15T00:07:01.814Z,29.44
2019-05-15T00:08:01.803Z,29.34
2019-05-15T00:09:02.661Z,29.33
2019-05-15T00:10:01.800Z,29.34
2019-05-15T00:11:02.666Z,29.33
2019-05-15T00:12:02.660Z,29.44
2019-05-15T00:13:01.756Z,29.74
2019-05-15T00:14:01.738Z,29.54
2019-05-15T00:15:02.190Z,29.34
2019-05-15T00:16:02.672Z,29.34
2019-05-15T00:17:01.722Z,29.34
2019-05-15T00:18:01.693Z,29.64
2019-05-15T00:19:01.681Z,29.54
2019-05-15T00:20:01.697Z,29.74
2019-05-15T00:21:01.673Z,29.34
2019-05-15T00:22:01.650Z,29.64
2019-05-15T00:23:01.640Z,29.34
2019-05-15T00:24:01.663Z,29.34
2019-05-15T00:25:01.634Z,29.33
2019-05-15T00:26:01.635Z,29.64
2019-05-15T00:27:01.598Z,29.54
2019-05-15T00:28:01.586Z,29.34
2019-05-15T00:29:11.706Z,29.34
2019-05-15T00:30:01.571Z,29.64
2019-05-15T00:31:01.594Z,29.54
2019-05-15T00:32:02.166Z,29.64
2019-05-15T00:33:01.542Z,29.34
2019-05-15T00:34:01.530Z,29.74
2019-05-15T00:35:01.572Z,29.64
2019-05-15T00:36:01.512Z,29.34
2019-05-15T00:37:02.185Z,29.54
2019-05-15T00:38:01.484Z,29.24
2019-05-15T00:39:01.467Z,29.54
2019-05-15T00:40:01.463Z,29.64
2019-05-15T00:41:01.464Z,29.64
2019-05-15T00:42:01.453Z,29.64
2019-05-15T00:43:01.426Z,29.64
2019-05-15T00:44:01.413Z,29.64
2019-05-15T00:45:01.407Z,29.24
2019-05-15T00:46:01.438Z,29.54
2019-05-15T00:47:01.396Z,29.54
2019-05-15T00:48:01.373Z,29.64
2019-05-15T00:49:01.364Z,29.64
2019-05-15T00:50:02.170Z,29.64
2019-05-15T00:51:01.720Z,29.64
2019-05-15T00:52:01.352Z,29.34
2019-05-15T00:53:01.320Z,29.54
2019-05-15T00:54:01.314Z,29.34
2019-05-15T00:55:02.164Z,29.54
2019-05-15T00:56:01.678Z,29.54
2019-05-15T00:57:01.294Z,29.34
2019-05-15T00:58:01.267Z,29.64
2019-05-15T00:59:02.163Z,29.54
2019-05-15T01:00:01.243Z,29.44
2019-05-15T01:01:01.240Z,29.64
2019-05-15T01:02:01.247Z,29.74
2019-05-15T01:03:01.216Z,29.34
2019-05-15T01:04:01.201Z,29.64
2019-05-15T01:05:01.191Z,29.44
2019-05-15T01:06:01.693Z,29.64
2019-05-15T01:07:01.199Z,29.64
2019-05-15T01:08:01.158Z,29.54
2019-05-15T01:09:01.163Z,29.54
2019-05-15T01:10:01.149Z,29.64
2019-05-15T01:11:01.164Z,29.44
2019-05-15T01:12:01.166Z,29.54
2019-05-15T01:13:01.102Z,29.64
2019-05-15T01:14:01.097Z,29.64
2019-05-15T01:15:01.084Z,29.54
2019-05-15T01:16:01.070Z,29.44
2019-05-15T01:17:01.082Z,29.24
2019-05-15T01:18:01.674Z,29.54
2019-05-15T01:19:01.662Z,29.64
2019-05-15T01:20:01.037Z,29.64
2019-05-15T01:21:01.021Z,29.55
2019-05-15T01:22:01.022Z,29.54
2019-05-15T01:23:01.036Z,29.54
2019-05-15T01:24:00.986Z,29.54
2019-05-15T01:25:00.977Z,29.64
2019-05-15T01:26:00.964Z,29.34
2019-05-15T01:27:01.175Z,29.44
2019-05-15T01:28:00.944Z,29.64
2019-05-15T01:29:00.952Z,29.54
2019-05-15T01:30:00.926Z,29.44
2019-05-15T01:31:00.929Z,29.64
2019-05-15T01:32:00.907Z,29.34
2019-05-15T01:33:00.892Z,29.54
2019-05-15T01:34:00.878Z,29.64
2019-05-15T01:35:00.869Z,29.74
2019-05-15T01:36:01.681Z,29.54
2019-05-15T01:37:01.188Z,29.64
2019-05-15T01:38:00.837Z,29.55
2019-05-15T01:39:00.845Z,29.34
2019-05-15T01:40:00.857Z,29.55
2019-05-15T01:41:01.674Z,29.65
2019-05-15T01:42:01.209Z,29.55
2019-05-15T01:43:00.858Z,29.55
2019-05-15T01:44:00.769Z,29.65
2019-05-15T01:45:00.763Z,29.65
2019-05-15T01:46:00.752Z,29.54
2019-05-15T01:47:00.755Z,29.64
2019-05-15T01:48:00.750Z,29.65
2019-05-15T01:49:00.719Z,29.54
2019-05-15T01:50:00.705Z,29.55
2019-05-15T01:51:00.698Z,29.64
2019-05-15T01:52:01.181Z,29.64
2019-05-15T01:53:00.696Z,29.55
2019-05-15T01:54:00.677Z,29.55
2019-05-15T01:55:00.658Z,29.65
2019-05-15T01:56:00.643Z,29.65
2019-05-15T01:57:00.646Z,29.65
2019-05-15T01:58:00.637Z,29.54
2019-05-15T01:59:00.624Z,29.75
2019-05-15T02:00:01.025Z,29.24
2019-05-15T02:01:00.592Z,29.55
2019-05-15T02:02:00.595Z,29.25
2019-05-15T02:03:00.589Z,29.25
2019-05-15T02:04:00.580Z,29.64
2019-05-15T02:05:00.556Z,29.35
2019-05-15T02:06:00.545Z,29.65
2019-05-15T02:07:01.186Z,29.34
2019-05-15T02:08:00.538Z,29.64
2019-05-15T02:09:00.505Z,29.35
2019-05-15T02:10:00.492Z,29.35
2019-05-15T02:11:00.488Z,29.65
2019-05-15T02:12:00.475Z,29.65
2019-05-15T02:13:00.485Z,29.64
2019-05-15T02:14:00.459Z,29.65
2019-05-15T02:15:00.460Z,29.35
2019-05-15T02:16:00.430Z,29.35
2019-05-15T02:17:00.443Z,29.46
2019-05-15T02:18:00.442Z,29.34
2019-05-15T02:19:00.399Z,29.35
2019-05-15T02:20:00.397Z,29.35
2019-05-15T02:21:01.187Z,29.35
2019-05-15T02:22:01.189Z,29.35
2019-05-15T02:23:00.397Z,29.65
2019-05-15T02:24:00.345Z,29.35
2019-05-15T02:25:00.335Z,29.46
2019-05-15T02:26:01.173Z,29.64
2019-05-15T02:27:01.171Z,29.46
2019-05-15T02:28:00.343Z,29.34
2019-05-15T02:29:00.308Z,29.34
2019-05-15T02:30:16.347Z,29.35
2019-05-15T02:31:00.266Z,29.35
2019-05-15T02:32:00.262Z,29.34
2019-05-15T02:33:00.686Z,29.34
2019-05-15T02:34:00.248Z,29.35
2019-05-15T02:35:00.237Z,29.54
2019-05-15T02:36:00.222Z,29.75
2019-05-15T02:37:00.517Z,29.46
2019-05-15T02:38:00.211Z,29.35
2019-05-15T02:39:00.200Z,29.55
2019-05-15T02:40:00.186Z,29.65
2019-05-15T02:41:00.161Z,29.65
2019-05-15T02:42:00.155Z,29.55
2019-05-15T02:43:00.672Z,29.64
2019-05-15T02:44:00.155Z,29.74
2019-05-15T02:45:00.147Z,29.46
2019-05-15T02:46:00.730Z,29.75
2019-05-15T02:47:00.109Z,29.65
2019-05-15T02:48:00.693Z,29.65
2019-05-15T02:49:00.210Z,29.64
2019-05-15T02:50:00.677Z,29.65
2019-05-15T02:51:00.062Z,29.65
2019-05-15T02:52:00.427Z,30.55
2019-05-15T02:53:00.709Z,29.65
2019-05-15T02:54:00.043Z,30.55
2019-05-15T02:55:00.679Z,29.75
2019-05-15T02:56:00.369Z,29.75
2019-05-15T02:57:00.006Z,29.75
2019-05-15T02:57:59.980Z,29.75
2019-05-15T02:59:00.270Z,29.75
2019-05-15T02:59:59.963Z,29.75
2019-05-15T03:00:59.950Z,30.35
2019-05-15T03:01:59.938Z,29.85
2019-05-15T03:03:00.357Z,29.85
2019-05-15T03:04:00.197Z,29.75
2019-05-15T03:04:59.909Z,29.85
2019-05-15T03:06:00.372Z,30.65
2019-05-15T03:07:00.466Z,29.85
2019-05-15T03:08:00.674Z,29.75
2019-05-15T03:08:59.894Z,30.65
2019-05-15T03:10:00.239Z,29.75
2019-05-15T03:10:59.843Z,29.65
2019-05-15T03:11:59.830Z,29.95
2019-05-15T03:13:00.677Z,29.75
2019-05-15T03:13:59.829Z,30.25
2019-05-15T03:15:00.116Z,30.65
2019-05-15T03:16:00.175Z,29.95
2019-05-15T03:16:59.962Z,29.85
2019-05-15T03:18:00.703Z,30.15
2019-05-15T03:19:00.025Z,30.25
2019-05-15T03:19:59.758Z,29.46
2019-05-15T03:21:00.279Z,30.35
2019-05-15T03:22:00.035Z,30.35
2019-05-15T03:22:59.920Z,30.15
2019-05-15T03:23:59.713Z,29.55
2019-05-15T03:24:59.704Z,30.65
2019-05-15T03:26:04.012Z,29.55
2019-05-15T03:26:59.680Z,29.75
2019-05-15T03:27:59.748Z,30.35
2019-05-15T03:28:59.658Z,30.05
2019-05-15T03:29:59.659Z,30.05
2019-05-15T03:31:17.578Z,29.46
2019-05-15T03:32:15.500Z,30.35
2019-05-15T03:33:03.602Z,30.25
2019-05-15T03:34:02.904Z,30.05
2019-05-15T03:35:05.031Z,30.45
2019-05-15T03:36:02.772Z,30.35
2019-05-15T03:37:03.214Z,30.55
2019-05-15T03:37:59.948Z,30.15
2019-05-15T03:38:59.545Z,30.25
2019-05-15T03:39:59.802Z,30.45
2019-05-15T03:40:59.854Z,30.25
2019-05-15T03:41:59.524Z,30.15
2019-05-15T03:42:59.614Z,30.45
2019-05-15T03:43:59.747Z,30.55
2019-05-15T03:44:59.835Z,30.65
2019-05-15T03:46:01.521Z,30.45
2019-05-15T03:46:59.711Z,29.46
2019-05-15T03:48:00.174Z,30.15
2019-05-15T03:49:00.443Z,30.55
2019-05-15T03:50:00.083Z,30.75
2019-05-15T03:51:00.210Z,30.35
2019-05-15T03:51:59.399Z,30.35
2019-05-15T03:52:59.392Z,30.35
2019-05-15T03:54:00.393Z,30.65
2019-05-15T03:54:59.390Z,30.45
2019-05-15T03:55:59.367Z,30.55
2019-05-15T03:56:59.348Z,30.75
2019-05-15T03:57:59.411Z,30.75
2019-05-15T03:58:59.857Z,30.35
2019-05-15T03:59:59.777Z,30.25
2019-05-15T04:01:00.319Z,30.05
2019-05-15T04:02:00.187Z,30.45
2019-05-15T04:02:59.308Z,30.35
2019-05-15T04:03:59.929Z,30.35
2019-05-15T04:05:01.687Z,30.45
2019-05-15T04:06:00.459Z,30.65
2019-05-15T04:06:59.834Z,30.45
2019-05-15T04:08:00.015Z,30.45
2019-05-15T04:08:59.230Z,30.05
2019-05-15T04:09:59.217Z,30.75
2019-05-15T04:10:59.852Z,30.75
2019-05-15T04:12:00.038Z,30.65
2019-05-15T04:13:00.167Z,30.65
2019-05-15T04:13:59.532Z,30.45
2019-05-15T04:14:59.747Z,30.65
2019-05-15T04:15:59.562Z,30.75
2019-05-15T04:16:59.809Z,30.25
2019-05-15T04:18:00.274Z,30.35
2019-05-15T04:18:59.455Z,30.65
2019-05-15T04:19:59.750Z,30.45
2019-05-15T04:21:00.182Z,30.45
2019-05-15T04:21:59.969Z,30.75
2019-05-15T04:23:00.319Z,30.75
2019-05-15T04:23:59.051Z,30.75
2019-05-15T04:24:59.431Z,30.75
2019-05-15T04:25:59.225Z,30.75
2019-05-15T04:26:59.862Z,30.55
2019-05-15T04:27:59.015Z,30.75
2019-05-15T04:29:00.176Z,30.25
2019-05-15T04:29:59.313Z,30.15
2019-05-15T04:30:59.775Z,30.25
2019-05-15T04:32:02.555Z,30.35
2019-05-15T04:32:59.570Z,30.15
2019-05-15T04:33:59.400Z,30.35
2019-05-15T04:34:59.491Z,30.35
2019-05-15T04:35:59.211Z,30.85
2019-05-15T04:36:58.913Z,30.25
2019-05-15T04:37:59.711Z,30.85
2019-05-15T04:38:58.897Z,30.05
2019-05-15T04:39:59.774Z,30.35
2019-05-15T04:40:59.264Z,30.35
2019-05-15T04:41:59.103Z,30.15
2019-05-15T04:42:59.369Z,30.15
2019-05-15T04:43:59.776Z,30.75
2019-05-15T04:44:59.603Z,30.15
2019-05-15T04:46:02.939Z,30.36
2019-05-15T04:46:59.663Z,30.35
2019-05-15T04:47:58.930Z,30.25
2019-05-15T04:48:59.612Z,30.35
2019-05-15T04:49:59.075Z,30.35
2019-05-15T04:50:59.011Z,30.15
2019-05-15T04:52:03.150Z,30.15
2019-05-15T04:52:59.416Z,30.25
2019-05-15T04:53:58.786Z,30.36
2019-05-15T04:54:59.781Z,30.35
2019-05-15T04:56:00.031Z,30.25
2019-05-15T04:56:59.462Z,30.36
2019-05-15T04:57:59.203Z,30.35
2019-05-15T04:59:00.120Z,30.35
2019-05-15T04:59:58.809Z,30.35
2019-05-15T05:01:00.182Z,30.15
2019-05-15T05:02:16.209Z,30.35
2019-05-15T05:02:58.865Z,30.25
2019-05-15T05:03:59.184Z,30.35
2019-05-15T05:04:58.935Z,30.15
2019-05-15T05:05:59.332Z,30.35
2019-05-15T05:06:58.794Z,30.35
2019-05-15T05:07:59.678Z,30.15
2019-05-15T05:08:59.704Z,30.35
2019-05-15T05:09:59.525Z,30.15
2019-05-15T05:10:59.400Z,30.35
2019-05-15T05:11:58.537Z,30.25
2019-05-15T05:12:59.225Z,30.15
2019-05-15T05:13:59.341Z,30.45
2019-05-15T05:14:58.802Z,30.15
2019-05-15T05:15:58.877Z,30.35
2019-05-15T05:16:59.283Z,30.55
2019-05-15T05:17:58.656Z,30.25
2019-05-15T05:18:59.388Z,30.15
2019-05-15T05:19:58.453Z,30.25
2019-05-15T05:20:58.433Z,30.35
2019-05-15T05:21:58.624Z,30.15
2019-05-15T05:22:58.474Z,30.15
2019-05-15T05:23:58.677Z,30.15
2019-05-15T05:24:58.546Z,30.15
2019-05-15T05:25:58.388Z,30.65
2019-05-15T05:26:58.376Z,30.25
2019-05-15T05:27:58.371Z,30.15
2019-05-15T05:29:01.474Z,30.55
2019-05-15T05:29:58.735Z,30.25
2019-05-15T05:30:58.902Z,30.55
2019-05-15T05:31:58.623Z,30.25
2019-05-15T05:32:58.311Z,30.55
2019-05-15T05:33:58.291Z,30.15
2019-05-15T05:34:59.181Z,30.55
2019-05-15T05:35:58.571Z,30.15
2019-05-15T05:36:58.974Z,30.55
2019-05-15T05:37:58.397Z,30.25
2019-05-15T05:38:58.474Z,30.65
2019-05-15T05:39:58.237Z,30.55
2019-05-15T05:40:59.193Z,30.45
2019-05-15T05:41:59.194Z,30.65
2019-05-15T05:42:59.630Z,30.45
2019-05-15T05:43:58.792Z,30.35
2019-05-15T05:44:58.301Z,30.55
2019-05-15T05:45:58.338Z,30.45
2019-05-15T05:46:58.695Z,30.65
2019-05-15T05:47:58.205Z,30.65
2019-05-15T05:48:58.405Z,30.55
2019-05-15T05:49:58.258Z,30.65
2019-05-15T05:50:58.477Z,30.55
2019-05-15T05:51:58.719Z,30.65
2019-05-15T05:52:58.227Z,30.25
2019-05-15T05:53:59.019Z,30.55
2019-05-15T05:54:58.201Z,30.55
2019-05-15T05:55:58.230Z,30.45
2019-05-15T05:56:58.569Z,30.55
2019-05-15T05:57:58.443Z,30.65
2019-05-15T05:58:58.670Z,30.55
2019-05-15T05:59:58.344Z,30.55
2019-05-15T06:00:58.615Z,30.55
2019-05-15T06:01:58.972Z,30.65
2019-05-15T06:02:59.099Z,30.55
2019-05-15T06:03:58.407Z,30.55
2019-05-15T06:04:58.308Z,30.25
2019-05-15T06:05:59.122Z,30.15
2019-05-15T06:07:07.193Z,30.65
2019-05-15T06:07:58.233Z,29.75
2019-05-15T06:08:58.395Z,29.95
2019-05-15T06:09:58.187Z,29.95
2019-05-15T06:10:58.760Z,29.46
2019-05-15T06:11:58.297Z,29.25
2019-05-15T06:12:58.700Z,28.85
2019-05-15T06:13:58.407Z,29.46
2019-05-15T06:14:58.115Z,29.46
2019-05-15T06:15:59.055Z,29.25
2019-05-15T06:16:58.851Z,29.35
2019-05-15T06:17:58.569Z,29.25
2019-05-15T06:18:58.781Z,28.96
2019-05-15T06:19:58.714Z,28.55
2019-05-15T06:20:58.588Z,29.06
2019-05-15T06:22:00.904Z,28.66
2019-05-15T06:22:58.208Z,28.25
2019-05-15T06:24:03.652Z,28.36
2019-05-15T06:24:57.979Z,28.96
2019-05-15T06:25:59.291Z,28.36
2019-05-15T06:26:58.774Z,28.75
2019-05-15T06:27:58.292Z,28.55
2019-05-15T06:28:58.401Z,28.66
2019-05-15T06:29:58.081Z,28.75
2019-05-15T06:31:00.620Z,28.66
2019-05-15T06:31:58.764Z,28.55
2019-05-15T06:33:08.218Z,28.55
2019-05-15T06:33:58.177Z,28.55
2019-05-15T06:34:57.868Z,28.55
2019-05-15T06:35:59.201Z,28.85
2019-05-15T06:36:58.887Z,28.85
2019-05-15T06:37:59.134Z,28.55
2019-05-15T06:38:59.065Z,28.75
2019-05-15T06:39:58.811Z,28.75
2019-05-15T06:40:58.310Z,28.25
2019-05-15T06:41:58.839Z,28.45
2019-05-15T06:42:59.310Z,28.16
2019-05-15T06:43:58.941Z,28.25
2019-05-15T06:44:58.939Z,28.66
2019-05-15T06:45:58.528Z,28.96
2019-05-15T06:46:58.725Z,28.55
2019-05-15T06:47:58.324Z,27.56
2019-05-15T06:48:58.130Z,28.25
2019-05-15T06:49:58.198Z,28.05
2019-05-15T06:50:57.992Z,28.16
2019-05-15T06:51:58.184Z,28.05
2019-05-15T06:52:58.728Z,28.96
2019-05-15T06:53:58.326Z,29.05
2019-05-15T06:54:59.226Z,29.65
2019-05-15T06:55:58.463Z,28.25
2019-05-15T06:56:58.514Z,28.75
2019-05-15T06:57:58.469Z,28.36
2019-05-15T06:58:58.136Z,28.75
2019-05-15T06:59:57.972Z,28.55
2019-05-15T07:00:59.300Z,28.66
2019-05-15T07:01:59.355Z,28.36
2019-05-15T07:02:58.243Z,27.95
2019-05-15T07:03:59.052Z,27.75
2019-05-15T07:04:58.486Z,27.95
2019-05-15T07:05:59.708Z,27.95
2019-05-15T07:06:58.314Z,28.75
2019-05-15T07:07:58.604Z,28.66
2019-05-15T07:08:58.609Z,28.75
2019-05-15T07:09:58.154Z,28.36
2019-05-15T07:10:57.859Z,28.66
2019-05-15T07:11:59.024Z,28.66
2019-05-15T07:12:58.531Z,29.35
2019-05-15T07:13:58.051Z,29.25
2019-05-15T07:14:58.191Z,28.85
2019-05-15T07:15:58.615Z,28.25
2019-05-15T07:16:59.215Z,28.75
2019-05-15T07:17:57.985Z,28.05
2019-05-15T07:18:58.963Z,28.55
2019-05-15T07:19:59.207Z,28.16
2019-05-15T07:20:58.109Z,28.16
2019-05-15T07:21:58.163Z,27.84
2019-05-15T07:22:58.614Z,28.16
2019-05-15T07:23:58.429Z,28.36
2019-05-15T07:24:58.251Z,28.14
2019-05-15T07:25:58.709Z,28.14
2019-05-15T07:26:59.137Z,28.16
2019-05-15T07:27:58.086Z,28.25
2019-05-15T07:28:59.361Z,27.14
2019-05-15T07:29:58.338Z,27.34
2019-05-15T07:30:58.350Z,28.54
2019-05-15T07:31:58.591Z,27.66
2019-05-15T07:32:58.406Z,27.95
2019-05-15T07:33:59.550Z,28.55
2019-05-15T07:34:57.827Z,28.25
2019-05-15T07:35:59.001Z,28.16
2019-05-15T07:36:59.150Z,28.24
2019-05-15T07:37:58.640Z,28.25
2019-05-15T07:38:58.070Z,28.34
2019-05-15T07:39:59.135Z,27.45
2019-05-15T07:41:01.153Z,27.86
2019-05-15T07:41:57.818Z,28.14
2019-05-15T07:42:58.555Z,28.55
2019-05-15T07:43:58.571Z,29.54
2019-05-15T07:44:58.824Z,29.54
2019-05-15T07:45:59.050Z,29.64
2019-05-15T07:46:58.352Z,30.14
2019-05-15T07:47:58.534Z,29.24
2019-05-15T07:48:58.299Z,29.04
2019-05-15T07:49:59.017Z,28.64
2019-05-15T07:50:59.439Z,27.74
2019-05-15T07:51:59.135Z,28.14
2019-05-15T07:52:59.050Z,27.04
2019-05-15T07:53:58.340Z,27.84
2019-05-15T07:54:58.269Z,28.04
2019-05-15T07:56:00.878Z,27.55
2019-05-15T07:56:58.188Z,27.55
2019-05-15T07:57:59.148Z,27.55
2019-05-15T07:58:58.575Z,27.84
2019-05-15T07:59:58.718Z,27.64
2019-05-15T08:01:00.284Z,28.04
2019-05-15T08:01:58.219Z,28.84
2019-05-15T08:02:58.668Z,28.24
2019-05-15T08:04:14.269Z,28.74
2019-05-15T08:04:57.654Z,28.64
2019-05-15T08:06:02.575Z,28.54
2019-05-15T08:06:58.946Z,28.84
2019-05-15T08:07:58.176Z,28.64
2019-05-15T08:08:59.037Z,27.93
2019-05-15T08:09:59.171Z,28.03
2019-05-15T08:10:57.941Z,26.63
2019-05-15T08:12:00.169Z,28.34
2019-05-15T08:12:58.087Z,27.13
2019-05-15T08:13:58.169Z,26.33
2019-05-15T08:14:58.246Z,26.33
2019-05-15T08:15:58.030Z,26.93
2019-05-15T08:16:58.937Z,27.03
2019-05-15T08:18:05.433Z,26.73
2019-05-15T08:18:57.858Z,26.63
2019-05-15T08:19:58.245Z,27.83
2019-05-15T08:20:58.538Z,27.63
2019-05-15T08:21:58.196Z,26.73
2019-05-15T08:22:58.219Z,26.83
2019-05-15T08:23:59.081Z,26.14
2019-05-15T08:24:59.169Z,25.43
2019-05-15T08:25:57.989Z,26.83
2019-05-15T08:26:58.100Z,26.73
2019-05-15T08:27:58.630Z,26.73
2019-05-15T08:28:57.958Z,26.04
2019-05-15T08:29:58.110Z,25.54
2019-05-15T08:30:58.277Z,26.14
2019-05-15T08:31:58.772Z,25.93
2019-05-15T08:32:58.864Z,26.25
2019-05-15T08:34:12.279Z,26.63
2019-05-15T08:34:58.574Z,26.53
2019-05-15T08:35:58.621Z,26.43
2019-05-15T08:36:58.747Z,25.43
2019-05-15T08:37:58.107Z,25.34
2019-05-15T08:38:59.154Z,25.65
2019-05-15T08:39:56.310Z,25.73
2019-05-15T08:40:59.049Z,25.84
2019-05-15T08:41:58.391Z,25.54
2019-05-15T08:43:01.246Z,25.54
2019-05-15T08:43:57.933Z,25.95
2019-05-15T08:44:58.392Z,25.84
2019-05-15T08:45:58.650Z,24.74
2019-05-15T08:46:58.316Z,25.35
2019-05-15T08:47:58.512Z,25.73
2019-05-15T08:48:58.165Z,25.63
2019-05-15T08:49:57.945Z,25.43
2019-05-15T08:50:57.887Z,25.54
2019-05-15T08:51:58.245Z,25.54
2019-05-15T08:52:57.934Z,25.73
2019-05-15T08:53:57.966Z,25.54
2019-05-15T08:54:58.844Z,25.54
2019-05-15T08:55:58.570Z,25.34
2019-05-15T08:56:58.983Z,25.34
2019-05-15T08:58:05.641Z,25.93
2019-05-15T08:58:58.066Z,25.54
2019-05-15T08:59:58.181Z,26.03
2019-05-15T09:00:58.719Z,26.03
2019-05-15T09:01:58.169Z,25.84
2019-05-15T09:02:58.189Z,25.43
2019-05-15T09:03:58.143Z,25.63
2019-05-15T09:04:58.038Z,25.54
2019-05-15T09:05:56.021Z,25.54
2019-05-15T09:07:01.040Z,26.02
2019-05-15T09:07:58.056Z,25.72
2019-05-15T09:08:58.543Z,25.72
2019-05-15T09:09:57.944Z,25.62
2019-05-15T09:10:55.958Z,25.72
2019-05-15T09:11:58.365Z,25.52
2019-05-15T09:12:58.501Z,25.52
2019-05-15T09:13:59.322Z,25.02
2019-05-15T09:14:58.085Z,24.22
2019-05-15T09:15:58.696Z,23.72
2019-05-15T09:16:58.265Z,24.32
2019-05-15T09:18:09.110Z,24.52
2019-05-15T09:18:55.887Z,24.22
2019-05-15T09:19:56.758Z,24.52
2019-05-15T09:20:55.858Z,23.93
2019-05-15T09:21:58.294Z,23.93
2019-05-15T09:22:58.113Z,24.02
2019-05-15T09:23:58.713Z,23.93
2019-05-15T09:24:55.809Z,23.43
2019-05-15T09:25:57.908Z,22.73
2019-05-15T09:26:56.242Z,23.93
2019-05-15T09:27:57.823Z,24.32
2019-05-15T09:28:58.323Z,24.82
2019-05-15T09:29:55.756Z,24.22
2019-05-15T09:30:55.768Z,25.02
2019-05-15T09:31:58.663Z,24.71
2019-05-15T09:32:55.752Z,25.01
2019-05-15T09:33:58.377Z,25.02
2019-05-15T09:34:55.794Z,24.73
2019-05-15T09:35:58.165Z,25.51
2019-05-15T09:36:55.702Z,25.71
2019-05-15T09:37:58.169Z,24.32
2019-05-15T09:38:58.333Z,25.02
2019-05-15T09:39:55.661Z,25.11
2019-05-15T09:40:58.294Z,24.21
2019-05-15T09:41:57.770Z,24.62
2019-05-15T09:42:57.755Z,25.11
2019-05-15T09:43:57.766Z,25.11
2019-05-15T09:44:58.028Z,24.81
2019-05-15T09:45:55.585Z,25.01
2019-05-15T09:46:58.286Z,25.01
2019-05-15T09:47:55.722Z,24.11
2019-05-15T09:48:59.050Z,24.02
2019-05-15T09:49:55.590Z,24.02
2019-05-15T09:50:58.532Z,24.11
2019-05-15T09:51:55.522Z,24.81
2019-05-15T09:52:55.715Z,24.62
2019-05-15T09:53:59.403Z,25.11
2019-05-15T09:54:55.538Z,25.71
2019-05-15T09:55:56.239Z,25.21
2019-05-15T09:56:55.493Z,25.31
2019-05-15T09:57:55.468Z,25.31
2019-05-15T09:58:55.454Z,24.62
2019-05-15T09:59:58.644Z,24.41
2019-05-15T10:00:55.430Z,25.21
2019-05-15T10:01:55.419Z,24.91
2019-05-15T10:02:55.415Z,24.71
2019-05-15T10:03:55.482Z,25.61
2019-05-15T10:05:05.848Z,26.10
2019-05-15T10:05:55.382Z,25.70
2019-05-15T10:06:55.377Z,25.70
2019-05-15T10:07:55.378Z,25.30
2019-05-15T10:08:55.344Z,25.70
2019-05-15T10:09:56.251Z,25.99
2019-05-15T10:10:55.329Z,25.79
2019-05-15T10:11:55.331Z,25.70
2019-05-15T10:12:55.341Z,25.99
2019-05-15T10:13:55.292Z,26.09
2019-05-15T10:14:59.043Z,25.60
2019-05-15T10:15:55.281Z,25.30
2019-05-15T10:16:58.406Z,25.90
2019-05-15T10:17:55.281Z,25.60
2019-05-15T10:18:58.246Z,25.60
2019-05-15T10:19:55.242Z,25.99
2019-05-15T10:20:55.221Z,25.99
2019-05-15T10:21:55.201Z,26.99
2019-05-15T10:22:55.225Z,26.99
2019-05-15T10:23:58.813Z,26.20
2019-05-15T10:24:55.196Z,26.09
2019-05-15T10:25:55.171Z,25.99
2019-05-15T10:26:55.154Z,25.90
2019-05-15T10:27:55.161Z,26.69
2019-05-15T10:28:55.177Z,26.50
2019-05-15T10:29:55.150Z,26.29
2019-05-15T10:30:55.128Z,26.99
2019-05-15T10:31:55.746Z,26.50
2019-05-15T10:32:55.147Z,26.09
2019-05-15T10:33:55.082Z,25.99
2019-05-15T10:34:55.711Z,26.08
2019-05-15T10:35:55.092Z,25.50
2019-05-15T10:36:55.076Z,25.60
2019-05-15T10:37:55.224Z,25.60
2019-05-15T10:38:55.082Z,25.70
2019-05-15T10:39:55.011Z,25.29
2019-05-15T10:41:08.491Z,24.29
2019-05-15T10:41:55.014Z,25.00
2019-05-15T10:42:54.978Z,23.90
2019-05-15T10:43:56.719Z,23.50
2019-05-15T10:44:55.711Z,23.41
2019-05-15T10:45:54.952Z,23.52
2019-05-15T10:46:54.960Z,23.41
2019-05-15T10:47:58.392Z,23.32
2019-05-15T10:48:54.923Z,23.52
2019-05-15T10:49:54.901Z,23.42
2019-05-15T10:51:01.373Z,23.02
2019-05-15T10:51:54.883Z,23.32
2019-05-15T10:52:54.942Z,23.61
2019-05-15T10:53:54.889Z,23.12
2019-05-15T10:54:58.160Z,23.42
2019-05-15T10:55:54.865Z,23.61
2019-05-15T10:56:54.830Z,22.52
2019-05-15T10:57:55.726Z,23.02
2019-05-15T10:58:54.815Z,23.32
2019-05-15T10:59:55.713Z,23.32
2019-05-15T11:00:54.814Z,23.12
2019-05-15T11:01:54.773Z,23.12
2019-05-15T11:02:54.768Z,23.42
2019-05-15T11:03:54.772Z,23.42
2019-05-15T11:04:54.749Z,23.02
2019-05-15T11:05:54.729Z,22.92
2019-05-15T11:06:54.730Z,23.02
2019-05-15T11:07:54.712Z,23.32
2019-05-15T11:08:54.718Z,22.62
2019-05-15T11:09:55.222Z,23.11
2019-05-15T11:10:54.678Z,23.52
2019-05-15T11:11:55.235Z,22.51
2019-05-15T11:12:54.659Z,22.72
2019-05-15T11:13:54.658Z,23.11
2019-05-15T11:14:54.657Z,22.71
2019-05-15T11:15:54.632Z,22.11
2019-05-15T11:16:54.629Z,22.41
2019-05-15T11:17:54.608Z,22.21
2019-05-15T11:18:54.613Z,22.31
2019-05-15T11:19:54.578Z,22.31
2019-05-15T11:20:55.216Z,22.51
2019-05-15T11:21:55.221Z,23.00
2019-05-15T11:22:55.213Z,22.71
2019-05-15T11:23:54.555Z,23.00
2019-05-15T11:24:54.573Z,22.81
2019-05-15T11:25:54.518Z,22.61
2019-05-15T11:26:56.316Z,22.41
2019-05-15T11:27:54.494Z,22.51
2019-05-15T11:28:54.494Z,22.41
2019-05-15T11:29:55.240Z,22.21
2019-05-15T11:30:54.462Z,22.51
2019-05-15T11:31:54.452Z,22.51
2019-05-15T11:32:55.220Z,23.41
2019-05-15T11:33:55.220Z,23.60
2019-05-15T11:34:54.746Z,23.30
2019-05-15T11:36:02.116Z,22.71
2019-05-15T11:36:54.396Z,23.00
2019-05-15T11:37:56.886Z,23.11
2019-05-15T11:38:54.378Z,23.00
2019-05-15T11:39:54.399Z,22.61
2019-05-15T11:40:54.357Z,22.89
2019-05-15T11:41:54.345Z,23.00
2019-05-15T11:42:54.350Z,23.00
2019-05-15T11:43:54.335Z,23.11
2019-05-15T11:44:54.332Z,23.39
2019-05-15T11:45:54.297Z,22.91
2019-05-15T11:46:55.224Z,23.21
2019-05-15T11:47:54.274Z,23.00
2019-05-15T11:48:55.220Z,23.10
2019-05-15T11:49:54.268Z,23.19
2019-05-15T11:50:54.286Z,23.49
2019-05-15T11:51:54.234Z,22.91
2019-05-15T11:52:54.219Z,22.91
2019-05-15T11:53:54.713Z,23.00
2019-05-15T11:54:54.233Z,23.19
2019-05-15T11:55:54.192Z,23.00
2019-05-15T11:56:54.718Z,22.91
2019-05-15T11:57:55.742Z,22.89
2019-05-15T11:58:54.725Z,22.70
2019-05-15T11:59:55.625Z,22.80
2019-05-15T12:00:54.135Z,22.89
2019-05-15T12:01:54.124Z,23.10
2019-05-15T12:02:54.785Z,23.00
2019-05-15T12:03:54.106Z,22.89
2019-05-15T12:04:54.748Z,23.30
2019-05-15T12:05:54.092Z,23.10
2019-05-15T12:06:59.682Z,23.30
2019-05-15T12:07:54.070Z,23.30
2019-05-15T12:08:54.048Z,23.00
2019-05-15T12:09:54.730Z,22.80
2019-05-15T12:10:54.046Z,23.49
2019-05-15T12:11:54.738Z,23.30
2019-05-15T12:12:54.716Z,23.00
2019-05-15T12:13:54.023Z,22.80
2019-05-15T12:14:53.996Z,22.60
2019-05-15T12:15:54.000Z,22.20
2019-05-15T12:17:05.164Z,22.71
2019-05-15T12:17:53.952Z,22.30
2019-05-15T12:18:53.948Z,22.50
2019-05-15T12:19:56.838Z,21.81
2019-05-15T12:20:53.969Z,22.41
2019-05-15T12:21:54.745Z,22.61
2019-05-15T12:22:54.740Z,22.50
2019-05-15T12:23:54.727Z,22.80
2019-05-15T12:24:53.874Z,23.10
2019-05-15T12:25:54.231Z,22.89
2019-05-15T12:26:53.912Z,22.80
2019-05-15T12:27:54.712Z,22.89
2019-05-15T12:28:53.849Z,23.10
2019-05-15T12:29:53.818Z,23.00
2019-05-15T12:30:53.887Z,23.00
2019-05-15T12:31:53.803Z,23.49
2019-05-15T12:32:54.758Z,22.00
2019-05-15T12:33:53.776Z,23.10
2019-05-15T12:34:54.733Z,25.89
2019-05-15T12:35:54.230Z,23.60
2019-05-15T12:36:58.085Z,22.60
2019-05-15T12:37:53.774Z,23.19
2019-05-15T12:38:53.726Z,23.69
2019-05-15T12:59:53.493Z,23.30
2019-05-15T13:00:53.483Z,22.89
2019-05-15T13:01:53.730Z,22.70
2019-05-15T13:02:53.500Z,22.50
2019-05-15T13:03:53.464Z,23.00
2019-05-15T13:04:53.439Z,22.89
2019-05-15T13:05:53.443Z,23.00
2019-05-15T13:07:11.696Z,22.60
2019-05-15T13:07:53.437Z,23.90
2019-05-15T13:08:53.393Z,23.08
2019-05-15T13:09:53.384Z,23.18
2019-05-15T13:10:53.376Z,22.69
2019-05-15T13:11:53.374Z,22.59